createdAt,value
2016-11-13T00:00:17.233Z,44.8
2016-11-13T00:01:25.921Z,45.18
2016-11-13T00:02:34.915Z,45
2016-11-13T00:03:43.914Z,45.18
2016-11-13T00:04:52.938Z,45.09
2016-11-13T00:06:01.946Z,44.61
2016-11-13T00:07:10.626Z,44.42
2016-11-13T00:08:19.305Z,44.7
2016-11-13T00:09:27.997Z,44.7
2016-11-13T00:10:36.699Z,44.61
2016-11-13T00:11:46.008Z,44.61
2016-11-13T00:12:55.308Z,44.61
2016-11-13T00:14:05.259Z,44.42
2016-11-13T00:15:15.183Z,44.51
2016-11-13T00:16:24.178Z,44.42
2016-11-13T00:17:32.870Z,44.23
2016-11-13T00:18:41.860Z,44.42
2016-11-13T00:19:50.551Z,44.51
2016-11-13T00:20:59.556Z,43.74
2016-11-13T00:22:08.263Z,44.13
2016-11-13T00:23:17.569Z,44.42
2016-11-13T00:24:26.558Z,44.61
2016-11-13T00:25:36.157Z,44.13
2016-11-13T00:26:45.160Z,44.51
2016-11-13T00:27:54.461Z,44.8
2016-11-13T00:29:03.614Z,44.61
2016-11-13T00:30:12.617Z,44.4
2016-11-13T00:31:21.618Z,44.3
2016-11-13T00:32:30.914Z,43.55
2016-11-13T00:33:39.922Z,44.23
2016-11-13T00:34:49.220Z,44.23
2016-11-13T00:35:58.525Z,44.01
2016-11-13T00:37:07.221Z,43.74
2016-11-13T00:38:16.508Z,44.23
2016-11-13T00:39:25.817Z,43.82
2016-11-13T00:40:35.892Z,43.82
2016-11-13T00:41:45.323Z,43.91
2016-11-13T00:42:54.629Z,44.3
2016-11-13T00:44:03.349Z,44.13
2016-11-13T00:45:12.048Z,43.91
2016-11-13T00:46:21.341Z,43.73
2016-11-13T00:47:30.642Z,43.82
2016-11-13T00:48:39.632Z,43.91
2016-11-13T00:49:48.307Z,43.82
2016-11-13T00:50:57.925Z,43.63
2016-11-13T00:52:06.607Z,43.73
2016-11-13T00:53:16.217Z,43.27
2016-11-13T00:54:25.502Z,43.82
2016-11-13T00:55:34.179Z,43.53
2016-11-13T00:56:43.171Z,43.82
2016-11-13T00:57:52.164Z,43.63
2016-11-13T00:59:01.165Z,43.63
2016-11-13T01:00:10.192Z,43.91
2016-11-13T01:01:19.810Z,43.53
2016-11-13T01:02:28.498Z,43.82
2016-11-13T01:03:37.953Z,43.73
2016-11-13T01:04:46.942Z,43.53
2016-11-13T01:05:55.634Z,43.63
2016-11-13T01:07:04.636Z,43.44
2016-11-13T01:08:13.632Z,43.24
2016-11-13T01:09:22.937Z,43.34
2016-11-13T01:10:31.929Z,43.53
2016-11-13T01:11:40.608Z,42.67
2016-11-13T01:12:49.921Z,43.24
2016-11-13T01:13:59.212Z,43.24
2016-11-13T01:15:08.659Z,43.34
2016-11-13T01:16:17.961Z,43.24
2016-11-13T01:17:26.654Z,43.44
2016-11-13T01:18:36.252Z,42.96
2016-11-13T01:19:44.945Z,42.86
2016-11-13T01:20:54.280Z,42.77
2016-11-13T01:22:03.582Z,42.19
2016-11-13T01:23:12.885Z,42.47
2016-11-13T01:24:21.577Z,42.29
2016-11-13T01:25:30.253Z,42.86
2016-11-13T01:26:38.979Z,42.96
2016-11-13T01:27:48.283Z,42.47
2016-11-13T01:28:56.965Z,42.77
2016-11-13T01:30:05.666Z,42.77
2016-11-13T01:31:14.663Z,42.77
2016-11-13T01:32:23.967Z,42.96
2016-11-13T01:33:33.569Z,42.57
2016-11-13T01:34:42.554Z,42.67
2016-11-13T01:35:51.539Z,42.38
2016-11-13T01:37:00.830Z,42.1
2016-11-13T01:38:09.873Z,42.38
2016-11-13T01:39:18.552Z,42.47
2016-11-13T01:40:27.549Z,42.19
2016-11-13T01:41:37.168Z,42.29
2016-11-13T01:42:46.180Z,42.29
2016-11-13T01:43:55.932Z,42.38
2016-11-13T01:45:04.625Z,42.29
2016-11-13T01:46:13.312Z,42.47
2016-11-13T01:47:23.226Z,42.47
2016-11-13T01:48:32.228Z,42.29
2016-11-13T01:49:41.080Z,42.29
2016-11-13T01:50:50.118Z,42.38
2016-11-13T01:51:58.788Z,42.1
2016-11-13T01:53:08.433Z,42.1
2016-11-13T01:54:18.037Z,42
2016-11-13T01:55:27.028Z,41.8
2016-11-13T01:56:36.016Z,41.71
2016-11-13T01:57:45.611Z,41.8
2016-11-13T01:58:54.290Z,41.52
2016-11-13T02:00:03.277Z,41.42
2016-11-13T02:01:12.564Z,41.71
2016-11-13T02:02:21.248Z,41.9
2016-11-13T02:03:30.545Z,41.8
2016-11-13T02:04:39.228Z,41.61
2016-11-13T02:05:48.233Z,41.8
2016-11-13T02:06:57.685Z,41.71
2016-11-13T02:08:06.375Z,41.8
2016-11-13T02:09:15.382Z,41.9
2016-11-13T02:10:24.395Z,41.52
2016-11-13T02:11:33.688Z,41.71
2016-11-13T02:12:43.160Z,41.42
2016-11-13T02:13:51.853Z,41.71
2016-11-13T02:15:00.538Z,41.42
2016-11-13T02:16:09.849Z,41.42
2016-11-13T02:17:18.825Z,41.61
2016-11-13T02:18:28.160Z,41.42
2016-11-13T02:19:37.157Z,41.5
2016-11-13T02:20:45.835Z,41.8
2016-11-13T02:21:55.146Z,41.8
2016-11-13T02:23:04.153Z,41.52
2016-11-13T02:24:13.491Z,41.4
2016-11-13T02:25:22.485Z,41.42
2016-11-13T02:26:31.481Z,41.71
2016-11-13T02:27:40.180Z,40.94
2016-11-13T02:28:49.169Z,41.52
2016-11-13T02:29:58.009Z,41.04
2016-11-13T02:31:06.692Z,41.33
2016-11-13T02:32:15.379Z,41.33
2016-11-13T02:33:24.671Z,41.4
2016-11-13T02:34:33.973Z,41.42
2016-11-13T02:35:43.273Z,41.52
2016-11-13T02:36:52.568Z,41.61
2016-11-13T02:38:01.299Z,41.42
2016-11-13T02:39:10.354Z,41.71
2016-11-13T02:40:19.340Z,41.52
2016-11-13T02:41:28.647Z,41.04
2016-11-13T02:42:37.630Z,41.33
2016-11-13T02:43:46.342Z,41.13
2016-11-13T02:44:55.352Z,40.75
2016-11-13T02:46:04.356Z,40.75
2016-11-13T02:47:13.641Z,40.66
2016-11-13T02:48:22.309Z,40.73
2016-11-13T02:49:31.025Z,40.66
2016-11-13T02:50:40.025Z,41.11
2016-11-13T02:51:49.012Z,41.5
2016-11-13T02:52:58.350Z,41.11
2016-11-13T02:54:07.643Z,41.04
2016-11-13T02:55:16.659Z,40.83
2016-11-13T02:56:25.653Z,40.56
2016-11-13T02:57:34.958Z,40.84
2016-11-13T02:58:44.243Z,40.66
2016-11-13T02:59:53.235Z,40.75
2016-11-13T03:01:02.298Z,40.66
2016-11-13T03:02:11.331Z,40.56
2016-11-13T03:03:20.338Z,40.56
2016-11-13T03:04:29.933Z,40.37
2016-11-13T03:05:39.524Z,40.56
2016-11-13T03:06:49.147Z,40.73
2016-11-13T03:07:57.825Z,40.73
2016-11-13T03:09:07.135Z,40.75
2016-11-13T03:10:16.114Z,40.64
2016-11-13T03:11:25.105Z,40.73
2016-11-13T03:12:34.086Z,40.47
2016-11-13T03:13:43.697Z,40.44
2016-11-13T03:14:52.379Z,40.35
2016-11-13T03:16:01.676Z,40.73
2016-11-13T03:17:11.293Z,40.75
2016-11-13T03:18:20.281Z,40.66
2016-11-13T03:19:28.964Z,40.25
2016-11-13T03:20:37.652Z,40.44
2016-11-13T03:21:46.947Z,40.54
2016-11-13T03:22:55.702Z,40.64
2016-11-13T03:24:05.299Z,40.64
2016-11-13T03:25:13.993Z,40.64
2016-11-13T03:26:22.683Z,40.64
2016-11-13T03:27:32.577Z,40.54
2016-11-13T03:28:41.286Z,40.54
2016-11-13T03:29:49.972Z,40.35
2016-11-13T03:30:58.982Z,40.25
2016-11-13T03:32:07.659Z,40.44
2016-11-13T03:33:16.720Z,40.54
2016-11-13T03:34:25.418Z,40.37
2016-11-13T03:35:34.431Z,40.16
2016-11-13T03:36:43.116Z,40.35
2016-11-13T03:37:52.114Z,40.27
2016-11-13T03:39:01.706Z,40.44
2016-11-13T03:40:11.308Z,40.35
2016-11-13T03:41:19.994Z,40.54
2016-11-13T03:42:29.309Z,40.35
2016-11-13T03:43:38.298Z,40.35
2016-11-13T03:44:47.143Z,40.37
2016-11-13T03:45:55.822Z,40.44
2016-11-13T03:47:05.129Z,40.54
2016-11-13T03:48:14.114Z,39.97
2016-11-13T03:49:23.710Z,40.25
2016-11-13T03:50:32.700Z,40.17
2016-11-13T03:51:41.397Z,40.06
2016-11-13T03:52:50.393Z,40.25
2016-11-13T03:53:59.682Z,40.06
2016-11-13T03:55:08.375Z,40.25
2016-11-13T03:56:17.659Z,40.06
2016-11-13T03:57:26.648Z,40.25
2016-11-13T03:58:36.277Z,40.44
2016-11-13T03:59:44.954Z,40.25
2016-11-13T04:00:54.252Z,40.06
2016-11-13T04:02:04.155Z,40.06
2016-11-13T04:03:13.451Z,40.06
2016-11-13T04:04:22.762Z,40.06
2016-11-13T04:05:31.451Z,40.25
2016-11-13T04:06:40.445Z,40.16
2016-11-13T04:07:49.734Z,40.16
2016-11-13T04:08:58.416Z,40.25
2016-11-13T04:10:07.714Z,40.16
2016-11-13T04:11:16.711Z,40.16
2016-11-13T04:12:25.384Z,40.06
2016-11-13T04:13:34.075Z,40.16
2016-11-13T04:14:42.767Z,40.16
2016-11-13T04:15:51.460Z,40.06
2016-11-13T04:17:00.452Z,40.16
2016-11-13T04:18:09.789Z,39.68
2016-11-13T04:19:19.387Z,39.39
2016-11-13T04:20:28.388Z,39.48
2016-11-13T04:21:37.085Z,39.68
2016-11-13T04:22:46.078Z,39.48
2016-11-13T04:23:55.419Z,39.68
2016-11-13T04:25:04.717Z,39.58
2016-11-13T04:26:13.713Z,39.58
2016-11-13T04:27:22.723Z,40.35
2016-11-13T04:28:31.719Z,39.68
2016-11-13T04:29:40.431Z,39.97
2016-11-13T04:30:49.612Z,39.77
2016-11-13T04:31:58.600Z,39.87
2016-11-13T04:33:07.590Z,39.48
2016-11-13T04:34:16.889Z,39.48
2016-11-13T04:35:25.878Z,39.39
2016-11-13T04:36:34.901Z,39.58
2016-11-13T04:37:43.912Z,39.39
2016-11-13T04:38:52.914Z,39.29
2016-11-13T04:40:02.207Z,39.2
2016-11-13T04:41:10.894Z,39.29
2016-11-13T04:42:19.727Z,39.2
2016-11-13T04:43:29.028Z,39.58
2016-11-13T04:44:38.021Z,39.48
2016-11-13T04:45:47.653Z,39.39
2016-11-13T04:46:56.938Z,39.48
2016-11-13T04:48:05.945Z,39.01
2016-11-13T04:49:14.930Z,39.68
2016-11-13T04:50:24.262Z,38.91
2016-11-13T04:51:33.565Z,39.48
2016-11-13T04:52:42.892Z,39.48
2016-11-13T04:53:52.180Z,39.1
2016-11-13T04:55:01.792Z,39.01
2016-11-13T04:56:11.402Z,39.1
2016-11-13T04:57:20.709Z,39.1
2016-11-13T04:58:29.394Z,39.2
2016-11-13T04:59:38.428Z,38.91
2016-11-13T05:00:47.140Z,38.91
2016-11-13T05:01:56.131Z,39.01
2016-11-13T05:03:05.736Z,39.39
2016-11-13T05:04:15.023Z,39.01
2016-11-13T05:05:24.678Z,39.29
2016-11-13T05:06:33.358Z,39.1
2016-11-13T05:07:42.052Z,39.1
2016-11-13T05:08:51.351Z,38.91
2016-11-13T05:10:00.367Z,38.91
2016-11-13T05:11:09.973Z,38.81
2016-11-13T05:12:18.954Z,39.2
2016-11-13T05:13:28.243Z,39.01
2016-11-13T05:14:36.929Z,38.62
2016-11-13T05:15:45.613Z,38.81
2016-11-13T05:16:54.910Z,39.01
2016-11-13T05:18:04.209Z,38.62
2016-11-13T05:19:13.815Z,39.2
2016-11-13T05:20:23.429Z,38.91
2016-11-13T05:21:32.106Z,39.29
2016-11-13T05:22:41.723Z,39.01
2016-11-13T05:23:50.410Z,39.1
2016-11-13T05:25:00.018Z,38.62
2016-11-13T05:26:09.318Z,38.72
2016-11-13T05:27:18.608Z,38.72
2016-11-13T05:28:27.779Z,39.01
2016-11-13T05:29:36.790Z,39.2
2016-11-13T05:30:46.111Z,39.2
2016-11-13T05:31:54.797Z,39.1
2016-11-13T05:33:04.395Z,39.1
2016-11-13T05:34:13.838Z,39.01
2016-11-13T05:35:23.438Z,38.81
2016-11-13T05:36:32.725Z,38.81
2016-11-13T05:37:41.714Z,38.72
2016-11-13T05:38:50.701Z,38.72
2016-11-13T05:40:00.012Z,39.1
2016-11-13T05:41:09.633Z,38.81
2016-11-13T05:42:18.942Z,39.2
2016-11-13T05:43:27.619Z,38.81
2016-11-13T05:44:36.921Z,38.34
2016-11-13T05:45:45.597Z,39.01
2016-11-13T05:46:54.894Z,38.81
2016-11-13T05:48:04.497Z,39.01
2016-11-13T05:49:13.180Z,39.2
2016-11-13T05:50:22.172Z,38.91
2016-11-13T05:51:32.083Z,39.01
2016-11-13T05:52:41.687Z,39.2
2016-11-13T05:53:50.680Z,38.62
2016-11-13T05:54:59.375Z,38.72
2016-11-13T05:56:08.691Z,38.43
2016-11-13T05:57:18.347Z,38.62
2016-11-13T05:58:28.008Z,38.72
2016-11-13T05:59:37.310Z,38.91
2016-11-13T06:00:46.371Z,38.53
2016-11-13T06:01:55.363Z,38.62
2016-11-13T06:03:04.674Z,38.81
2016-11-13T06:04:13.743Z,38.72
2016-11-13T06:05:22.762Z,38.72
2016-11-13T06:06:32.370Z,39.1
2016-11-13T06:07:41.354Z,38.98
2016-11-13T06:08:50.344Z,39.08
2016-11-13T06:09:59.081Z,39.08
2016-11-13T06:11:08.124Z,38.81
2016-11-13T06:12:17.117Z,38.53
2016-11-13T06:13:25.804Z,38.43
2016-11-13T06:14:35.112Z,38.43
2016-11-13T06:15:43.804Z,38.43
2016-11-13T06:16:52.497Z,38.43
2016-11-13T06:18:01.184Z,38.34
2016-11-13T06:19:09.880Z,38.81
2016-11-13T06:20:19.020Z,38.79
2016-11-13T06:21:28.630Z,38.81
2016-11-13T06:22:37.628Z,38.79
2016-11-13T06:23:46.343Z,38.98
2016-11-13T06:24:55.381Z,38.79
2016-11-13T06:26:04.067Z,39.08
2016-11-13T06:27:12.744Z,38.89
2016-11-13T06:28:21.423Z,39.18
2016-11-13T06:29:30.172Z,38.62
2016-11-13T06:30:38.847Z,38.43
2016-11-13T06:31:48.153Z,38.72
2016-11-13T06:32:57.160Z,39.1
2016-11-13T06:34:06.208Z,38.43
2016-11-13T06:35:15.207Z,38.24
2016-11-13T06:36:24.204Z,38.12
2016-11-13T06:37:33.797Z,38.32
2016-11-13T06:38:42.827Z,38.79
2016-11-13T06:39:51.527Z,39.08
2016-11-13T06:41:00.230Z,38.51
2016-11-13T06:42:09.539Z,38.6
2016-11-13T06:43:18.268Z,38.51
2016-11-13T06:44:27.271Z,38.51
2016-11-13T06:45:36.273Z,38.43
2016-11-13T06:46:44.954Z,38.62
2016-11-13T06:47:53.998Z,38.72
2016-11-13T06:49:03.307Z,38.41
2016-11-13T06:50:12.348Z,38.53
2016-11-13T06:51:21.689Z,38.22
2016-11-13T06:52:30.431Z,38.41
2016-11-13T06:53:39.478Z,38.51
2016-11-13T06:54:48.529Z,38.51
2016-11-13T06:55:57.375Z,38.7
2016-11-13T06:57:06.408Z,38.34
2016-11-13T06:58:15.139Z,38.41
2016-11-13T06:59:23.908Z,38.51
2016-11-13T07:00:33.017Z,38.32
2016-11-13T07:01:42.567Z,38.24
2016-11-13T07:02:51.668Z,38.24
2016-11-13T07:04:00.697Z,38.03
2016-11-13T07:05:09.994Z,38.43
2016-11-13T07:06:18.990Z,37.84
2016-11-13T07:07:28.010Z,37.93
2016-11-13T07:08:36.690Z,37.84
2016-11-13T07:09:45.695Z,38.32
2016-11-13T07:10:54.988Z,38.43
2016-11-13T07:12:03.978Z,38.32
2016-11-13T07:13:13.282Z,38.32
2016-11-13T07:14:22.322Z,38.41
2016-11-13T07:15:31.324Z,38.22
2016-11-13T07:16:40.014Z,38.32
2016-11-13T07:17:49.618Z,38.32
2016-11-13T07:18:58.630Z,38.32
2016-11-13T07:20:07.625Z,38.41
2016-11-13T07:21:16.618Z,38.12
2016-11-13T07:22:25.601Z,38.32
2016-11-13T07:23:34.586Z,37.93
2016-11-13T07:24:43.907Z,38.12
2016-11-13T07:25:53.202Z,38.32
2016-11-13T07:27:02.201Z,38.32
2016-11-13T07:28:11.801Z,38.32
2016-11-13T07:29:21.449Z,38.51
2016-11-13T07:30:30.446Z,38.22
2016-11-13T07:31:39.143Z,38.32
2016-11-13T07:32:48.129Z,38.32
2016-11-13T07:33:57.109Z,38.32
2016-11-13T07:35:06.722Z,37.93
2016-11-13T07:36:16.028Z,38.03
2016-11-13T07:37:25.021Z,38.41
2016-11-13T07:38:34.021Z,38.32
2016-11-13T07:39:43.013Z,37.84
2016-11-13T07:40:52.012Z,38.12
2016-11-13T07:42:01.022Z,38.12
2016-11-13T07:43:10.018Z,37.93
2016-11-13T07:44:19.010Z,38.03
2016-11-13T07:45:28.309Z,38.03
2016-11-13T07:46:37.967Z,37.93
2016-11-13T07:47:47.572Z,37.93
2016-11-13T07:48:56.269Z,38.03
2016-11-13T07:50:04.968Z,38.03
2016-11-13T07:51:13.952Z,37.93
2016-11-13T07:52:23.045Z,38.12
2016-11-13T07:53:31.757Z,38.32
2016-11-13T07:54:40.455Z,37.74
2016-11-13T07:55:49.754Z,38.12
2016-11-13T07:56:58.750Z,38.22
2016-11-13T07:58:08.105Z,38.12
2016-11-13T07:59:17.103Z,37.84
2016-11-13T08:00:25.799Z,38.03
2016-11-13T08:01:35.116Z,37.84
2016-11-13T08:02:43.803Z,38.03
2016-11-13T08:03:52.831Z,38.12
2016-11-13T08:05:01.829Z,38.12
2016-11-13T08:06:10.549Z,38.12
2016-11-13T08:07:20.483Z,38.03
2016-11-13T08:08:29.782Z,38.22
2016-11-13T08:09:38.773Z,37.74
2016-11-13T08:10:47.774Z,38.03
2016-11-13T08:11:56.460Z,38.03
2016-11-13T08:13:05.770Z,38.03
2016-11-13T08:14:15.070Z,38.03
2016-11-13T08:15:23.762Z,38.03
2016-11-13T08:16:32.492Z,38.12
2016-11-13T08:17:41.173Z,38.12
2016-11-13T08:18:50.178Z,38.12
2016-11-13T08:19:59.168Z,37.84
2016-11-13T08:21:08.623Z,37.66
2016-11-13T08:22:17.306Z,37.45
2016-11-13T08:23:26.307Z,37.55
2016-11-13T08:24:35.323Z,37.57
2016-11-13T08:25:44.357Z,37.66
2016-11-13T08:26:53.385Z,37.47
2016-11-13T08:28:02.062Z,37.57
2016-11-13T08:29:11.059Z,37.09
2016-11-13T08:30:20.362Z,36.91
2016-11-13T08:31:29.661Z,36.53
2016-11-13T08:32:39.580Z,36.53
2016-11-13T08:33:48.584Z,36.44
2016-11-13T08:34:57.602Z,36.15
2016-11-13T08:36:06.388Z,35.69
2016-11-13T08:37:15.397Z,35.88
2016-11-13T08:38:24.228Z,35.59
2016-11-13T08:39:33.224Z,35.49
2016-11-13T08:40:41.911Z,35.69
2016-11-13T08:41:51.240Z,35.61
2016-11-13T08:43:00.287Z,35.51
2016-11-13T08:44:09.611Z,35.61
2016-11-13T08:45:18.675Z,35.32
2016-11-13T08:46:27.423Z,35.22
2016-11-13T08:47:36.846Z,35.22
2016-11-13T08:48:45.845Z,34.94
2016-11-13T08:49:55.503Z,35.05
2016-11-13T08:51:04.511Z,35.05
2016-11-13T08:52:13.212Z,35.14
2016-11-13T08:53:22.546Z,34.67
2016-11-13T08:54:31.328Z,35.05
2016-11-13T08:55:40.659Z,34.95
2016-11-13T08:56:50.272Z,35.14
2016-11-13T08:57:59.810Z,34.86
2016-11-13T08:59:08.980Z,35.14
2016-11-13T09:00:17.984Z,34.95
2016-11-13T09:01:26.753Z,34.47
2016-11-13T09:02:35.465Z,34.86
2016-11-13T09:03:45.215Z,34.28
2016-11-13T09:04:54.598Z,34.38
2016-11-13T09:06:03.722Z,34.38
2016-11-13T09:07:13.029Z,34.47
2016-11-13T09:08:21.725Z,34.59
2016-11-13T09:09:32.010Z,34.11
2016-11-13T09:10:41.011Z,34.2
2016-11-13T09:11:49.701Z,34.2
2016-11-13T09:12:58.693Z,34.39
2016-11-13T09:14:07.384Z,34.78
2016-11-13T09:15:16.389Z,34.39
2016-11-13T09:16:25.728Z,34.95
2016-11-13T09:17:34.481Z,34.95
2016-11-13T09:18:43.807Z,34.95
2016-11-13T09:19:52.494Z,35.05
2016-11-13T09:21:01.200Z,34.86
2016-11-13T09:22:10.204Z,35.06
2016-11-13T09:23:19.512Z,34.68
2016-11-13T09:24:28.504Z,34.95
2016-11-13T09:25:37.504Z,35.06
2016-11-13T09:26:46.188Z,34.76
2016-11-13T09:27:55.507Z,34.97
2016-11-13T09:29:04.225Z,35.34
2016-11-13T09:30:13.523Z,35.34
2016-11-13T09:31:22.823Z,36.22
2016-11-13T09:32:31.508Z,35.64
2016-11-13T09:33:40.504Z,36.03
2016-11-13T09:34:49.818Z,36.03
2016-11-13T09:35:58.815Z,35.83
2016-11-13T09:37:08.110Z,35.85
2016-11-13T09:38:16.800Z,36.05
2016-11-13T09:39:25.491Z,35.57
2016-11-13T09:40:34.488Z,36.05
2016-11-13T09:41:43.779Z,36.24
2016-11-13T09:42:52.795Z,36.07
2016-11-13T09:44:02.459Z,36.53
2016-11-13T09:45:11.465Z,36.07
2016-11-13T09:46:20.792Z,37.43
2016-11-13T09:47:29.777Z,37.62
2016-11-13T09:48:39.383Z,38.31
2016-11-13T09:49:48.390Z,37.35
2016-11-13T09:50:57.728Z,36.68
2016-11-13T09:52:06.442Z,36.68
2016-11-13T09:53:15.456Z,36.11
2016-11-13T09:54:24.143Z,36.31
2016-11-13T09:55:32.835Z,36.89
2016-11-13T09:56:41.833Z,36.89
2016-11-13T09:57:50.828Z,36.99
2016-11-13T09:59:00.133Z,37.08
2016-11-13T10:00:08.835Z,36.97
2016-11-13T10:01:17.858Z,36.79
2016-11-13T10:02:26.863Z,37.18
2016-11-13T10:03:35.872Z,37.18
2016-11-13T10:04:44.877Z,36.87
2016-11-13T10:05:53.879Z,37.18
2016-11-13T10:07:02.572Z,37.18
2016-11-13T10:08:11.563Z,36.79
2016-11-13T10:09:20.264Z,37.08
2016-11-13T10:10:29.272Z,36.79
2016-11-13T10:11:38.600Z,36.89
2016-11-13T10:12:47.892Z,36.79
2016-11-13T10:13:57.211Z,37.18
2016-11-13T10:15:06.211Z,36.89
2016-11-13T10:16:15.518Z,36.99
2016-11-13T10:17:24.823Z,36.89
2016-11-13T10:18:34.123Z,37.18
2016-11-13T10:19:43.137Z,37.18
2016-11-13T10:20:52.451Z,37.08
2016-11-13T10:22:01.815Z,37.18
2016-11-13T10:23:11.449Z,37.19
2016-11-13T10:24:20.454Z,37.39
2016-11-13T10:25:30.061Z,37.27
2016-11-13T10:26:38.748Z,37.18
2016-11-13T10:27:47.433Z,37.1
2016-11-13T10:28:56.757Z,37.19
2016-11-13T10:30:06.063Z,37.19
2016-11-13T10:31:15.062Z,37.19
2016-11-13T10:32:24.116Z,37.46
2016-11-13T10:33:33.419Z,37.39
2016-11-13T10:34:42.107Z,37.77
2016-11-13T10:35:51.408Z,37.68
2016-11-13T10:37:00.408Z,37.66
2016-11-13T10:38:09.103Z,30.91
2016-11-13T10:39:18.102Z,27.13
2016-11-13T10:40:27.401Z,27.26
2016-11-13T10:41:36.416Z,27.05
2016-11-13T10:42:45.719Z,27.42
2016-11-13T10:43:54.737Z,27.78
2016-11-13T10:45:03.734Z,27.68
2016-11-13T10:46:12.735Z,27.59
2016-11-13T10:47:22.040Z,27.48
2016-11-13T10:48:30.734Z,28.72
2016-11-13T10:49:39.445Z,28.7
2016-11-13T10:50:49.055Z,28.7
2016-11-13T10:51:57.737Z,28.8
2016-11-13T10:53:06.736Z,28.61
2016-11-13T10:54:15.431Z,28.7
2016-11-13T10:55:24.845Z,29.27
2016-11-13T10:56:34.335Z,29.46
2016-11-13T10:57:43.556Z,29.73
2016-11-13T10:58:52.638Z,29.46
2016-11-13T11:00:02.184Z,29.46
2016-11-13T11:01:11.201Z,29.55
2016-11-13T11:02:19.883Z,30.49
2016-11-13T11:03:28.636Z,30.98
2016-11-13T11:04:38.026Z,30.86
2016-11-13T11:05:47.361Z,30.88
2016-11-13T11:06:56.450Z,31.15
2016-11-13T11:08:05.821Z,31.53
2016-11-13T11:09:15.702Z,31.53
2016-11-13T11:10:24.400Z,31.34
2016-11-13T11:11:33.252Z,31.72
2016-11-13T11:12:43.104Z,31.99
2016-11-13T11:13:52.863Z,31.63
2016-11-13T11:15:01.883Z,31.53
2016-11-13T11:16:11.024Z,31.43
2016-11-13T11:17:20.042Z,31.63
2016-11-13T11:18:28.830Z,31.63
2016-11-13T11:19:37.827Z,32.01
2016-11-13T11:20:47.534Z,32.66
2016-11-13T11:21:57.200Z,32.37
2016-11-13T11:23:06.645Z,32.09
2016-11-13T11:24:15.647Z,32.28
2016-11-13T11:25:24.713Z,32.66
2016-11-13T11:26:33.744Z,32.95
2016-11-13T11:27:43.064Z,33.42
2016-11-13T11:28:52.068Z,33.79
2016-11-13T11:30:01.083Z,34.65
2016-11-13T11:31:10.102Z,34.84
2016-11-13T11:32:18.821Z,33.73
2016-11-13T11:33:27.519Z,33.46
2016-11-13T11:34:36.539Z,32.62
2016-11-13T11:35:45.600Z,31.67
2016-11-13T11:36:54.912Z,31.02
2016-11-13T11:38:03.599Z,30.46
2016-11-13T11:39:12.592Z,29.88
2016-11-13T11:40:21.292Z,29.23
2016-11-13T11:41:30.598Z,29.79
2016-11-13T11:42:39.674Z,31.38
2016-11-13T11:43:48.725Z,33.86
2016-11-13T11:44:57.736Z,34.51
2016-11-13T11:46:07.374Z,33.86
2016-11-13T11:47:16.081Z,32.44
2016-11-13T11:48:25.563Z,31.69
2016-11-13T11:49:35.472Z,31.43
2016-11-13T11:50:44.152Z,31.16
2016-11-13T11:51:53.457Z,31.54
2016-11-13T11:53:02.480Z,31.45
2016-11-13T11:54:11.519Z,31.46
2016-11-13T11:55:20.839Z,31.46
2016-11-13T11:56:29.846Z,31.27
2016-11-13T11:57:38.841Z,31.66
2016-11-13T11:58:48.159Z,31.37
2016-11-13T11:59:57.951Z,31.58
2016-11-13T12:01:07.603Z,31.38
2016-11-13T12:02:16.619Z,31.4
2016-11-13T12:03:25.938Z,31.69
2016-11-13T12:04:34.935Z,31.79
2016-11-13T12:05:44.248Z,32.07
2016-11-13T12:06:53.249Z,31.98
2016-11-13T12:08:01.940Z,31.98
2016-11-13T12:09:10.949Z,31.98
2016-11-13T12:10:19.649Z,32.07
2016-11-13T12:11:28.720Z,31.88
2016-11-13T12:12:37.422Z,31.88
2016-11-13T12:13:46.729Z,31.69
2016-11-13T12:14:55.752Z,31.9
2016-11-13T12:16:05.685Z,31.99
2016-11-13T12:17:14.669Z,31.99
2016-11-13T12:18:23.359Z,32.28
2016-11-13T12:19:32.380Z,33.15
2016-11-13T12:20:41.094Z,34.11
2016-11-13T12:21:50.428Z,34.39
2016-11-13T12:23:00.346Z,34.3
2016-11-13T12:24:09.037Z,34.3
2016-11-13T12:25:18.330Z,34.2
2016-11-13T12:26:27.026Z,34.01
2016-11-13T12:27:36.031Z,34.3
2016-11-13T12:28:45.197Z,33.8
2016-11-13T12:29:54.804Z,33.72
2016-11-13T12:31:04.437Z,33.91
2016-11-13T12:32:13.791Z,33.7
2016-11-13T12:33:22.778Z,33.62
2016-11-13T12:34:32.067Z,33.62
2016-11-13T12:35:41.067Z,33.99
2016-11-13T12:36:49.762Z,33.99
2016-11-13T12:37:58.775Z,33.7
2016-11-13T12:39:07.468Z,33.61
2016-11-13T12:40:16.477Z,33.9
2016-11-13T12:41:25.497Z,34.19
2016-11-13T12:42:34.794Z,34.19
2016-11-13T12:43:43.498Z,34.09
2016-11-13T12:44:52.187Z,34.19
2016-11-13T12:46:01.497Z,34.09
2016-11-13T12:47:10.499Z,34.19
2016-11-13T12:48:19.824Z,34.28
2016-11-13T12:49:28.821Z,34.28
2016-11-13T12:50:38.188Z,34.38
2016-11-13T12:51:47.226Z,34.38
2016-11-13T12:52:55.913Z,34.38
2016-11-13T12:54:05.261Z,34.38
2016-11-13T12:55:14.270Z,34.38
2016-11-13T12:56:23.265Z,34.57
2016-11-13T12:57:32.276Z,34.65
2016-11-13T12:58:40.977Z,34.76
2016-11-13T12:59:50.280Z,34.28
2016-11-13T13:00:58.986Z,34.76
2016-11-13T13:02:07.684Z,34.38
2016-11-13T13:03:16.698Z,34.47
2016-11-13T13:04:25.704Z,34.55
2016-11-13T13:05:34.735Z,35.13
2016-11-13T13:06:43.747Z,34.95
2016-11-13T13:07:52.463Z,34.75
2016-11-13T13:09:01.322Z,34.94
2016-11-13T13:10:10.337Z,35.03
2016-11-13T13:11:19.328Z,34.75
2016-11-13T13:12:28.897Z,34.94
2016-11-13T13:13:38.941Z,34.94
2016-11-13T13:14:47.806Z,35.13
2016-11-13T13:15:56.885Z,35.03
2016-11-13T13:17:05.930Z,35.03
2016-11-13T13:18:14.958Z,35.03
2016-11-13T13:19:23.688Z,34.94
2016-11-13T13:20:32.555Z,35.13
2016-11-13T13:21:41.550Z,35.13
2016-11-13T13:22:50.256Z,34.94
2016-11-13T13:23:58.969Z,35.13
2016-11-13T13:25:07.671Z,35.32
2016-11-13T13:26:17.000Z,35.03
2016-11-13T13:27:26.001Z,35.32
2016-11-13T13:28:35.013Z,35.22
2016-11-13T13:29:44.322Z,35.51
2016-11-13T13:30:53.325Z,35.89
2016-11-13T13:32:02.331Z,36.18
2016-11-13T13:33:11.975Z,36.57
2016-11-13T13:34:20.964Z,36.76
2016-11-13T13:35:29.985Z,36.74
2016-11-13T13:36:39.032Z,37.51
2016-11-13T13:37:48.184Z,37.62
2016-11-13T13:38:57.400Z,37.41
2016-11-13T13:40:06.169Z,37.7
2016-11-13T13:41:15.495Z,37.6
2016-11-13T13:42:24.187Z,37.51
2016-11-13T13:43:33.204Z,37.41
2016-11-13T13:44:41.914Z,37.41
2016-11-13T13:45:50.940Z,37.13
2016-11-13T13:46:59.940Z,37.32
2016-11-13T13:48:09.256Z,37.13
2016-11-13T13:49:18.157Z,36.95
2016-11-13T13:50:27.157Z,37.03
2016-11-13T13:51:36.772Z,37.03
2016-11-13T13:52:46.092Z,37.03
2016-11-13T13:53:54.779Z,37.13
2016-11-13T13:55:04.105Z,37.53
2016-11-13T13:56:13.762Z,37.6
2016-11-13T13:57:22.760Z,37.8
2016-11-13T13:58:31.749Z,37.51
2016-11-13T13:59:40.446Z,37.6
2016-11-13T14:00:49.759Z,37.51
2016-11-13T14:01:58.462Z,37.41
2016-11-13T14:03:07.151Z,37.7
2016-11-13T14:04:16.164Z,37.7
2016-11-13T14:05:25.248Z,37.7
2016-11-13T14:06:34.441Z,37.72
2016-11-13T14:07:44.049Z,37.7
2016-11-13T14:08:52.735Z,37.51
2016-11-13T14:10:01.852Z,37.51
2016-11-13T14:11:11.327Z,37.6
2016-11-13T14:12:21.383Z,37.6
2016-11-13T14:13:30.385Z,37.51
2016-11-13T14:14:40.374Z,37.51
2016-11-13T14:15:50.076Z,37.8
2016-11-13T14:16:59.211Z,37.41
2016-11-13T14:18:07.953Z,37.41
2016-11-13T14:19:17.079Z,37.51
2016-11-13T14:20:27.146Z,37.8
2016-11-13T14:21:35.966Z,37.8
2016-11-13T14:22:44.679Z,37.53
2016-11-13T14:23:53.537Z,37.89
2016-11-13T14:25:02.234Z,37.89
2016-11-13T14:26:11.546Z,38.28
2016-11-13T14:27:20.862Z,38.28
2016-11-13T14:28:29.851Z,38.18
2016-11-13T14:29:39.157Z,38.1
2016-11-13T14:30:48.186Z,38.2
2016-11-13T14:31:56.875Z,38.01
2016-11-13T14:33:05.622Z,38.1
2016-11-13T14:34:14.328Z,38.1
2016-11-13T14:35:23.669Z,37.91
2016-11-13T14:36:32.735Z,37.45
2016-11-13T14:37:42.100Z,37.55
2016-11-13T14:38:51.779Z,37.55
2016-11-13T14:40:00.486Z,37.45
2016-11-13T14:41:10.145Z,37.16
2016-11-13T14:42:19.759Z,37.08
2016-11-13T14:43:28.779Z,36.7
2016-11-13T14:44:37.784Z,36.9
2016-11-13T14:45:46.788Z,36.7
2016-11-13T14:46:56.130Z,37.08
2016-11-13T14:48:05.428Z,36.99
2016-11-13T14:49:14.732Z,36.9
2016-11-13T14:50:23.741Z,37.08
2016-11-13T14:51:32.808Z,36.99
2016-11-13T14:52:41.801Z,36.8